createdAt,value
2023-02-25T00:01:36.953Z,-2.70
2023-02-25T00:04:04.243Z,-2.70
2023-02-25T00:06:31.259Z,-2.70
2023-02-25T00:08:58.547Z,-2.70
2023-02-25T00:11:26.321Z,-2.70
2023-02-25T00:13:53.931Z,-2.80
2023-02-25T00:16:23.438Z,-2.80
2023-02-25T00:18:55.780Z,-2.80
2023-02-25T00:21:23.018Z,-2.90
2023-02-25T00:23:51.241Z,-2.90
2023-02-25T00:26:18.669Z,-2.90
2023-02-25T00:28:46.780Z,-2.90
2023-02-25T00:31:22.112Z,-2.90
2023-02-25T00:33:50.431Z,-2.90
2023-02-25T00:36:21.281Z,-3.00
2023-02-25T00:38:50.717Z,-3.10
2023-02-25T00:41:20.098Z,-3.00
2023-02-25T00:43:56.244Z,-3.10
2023-02-25T00:46:23.874Z,-3.20
2023-02-25T00:48:52.249Z,-3.20
2023-02-25T00:51:24.424Z,-3.10
2023-02-25T00:53:52.987Z,-3.10
2023-02-25T00:56:20.721Z,-3.10
2023-02-25T00:58:49.016Z,-3.20
2023-02-25T01:01:31.480Z,-3.30
2023-02-25T01:03:58.825Z,-3.20
2023-02-25T01:06:27.920Z,-3.20
2023-02-25T01:08:54.980Z,-3.20
2023-02-25T01:11:29.509Z,-3.30
2023-02-25T01:14:05.908Z,-3.30
2023-02-25T01:16:35.293Z,-3.30
2023-02-25T01:19:14.928Z,-3.40
2023-02-25T01:21:44.738Z,-3.50
2023-02-25T01:24:18.112Z,-3.50
2023-02-25T01:26:46.243Z,-3.50
2023-02-25T01:29:16.870Z,-3.60
2023-02-25T01:31:44.572Z,-3.60
2023-02-25T01:34:15.038Z,-3.60
2023-02-25T01:36:42.503Z,-3.60
2023-02-25T01:39:10.438Z,-3.70
2023-02-25T01:41:38.201Z,-3.70
2023-02-25T01:44:08.452Z,-3.70
2023-02-25T01:46:36.996Z,-3.60
2023-02-25T01:49:08.866Z,-3.70
2023-02-25T01:51:37.083Z,-3.80
2023-02-25T01:54:06.823Z,-3.80
2023-02-25T01:56:36.023Z,-3.90
2023-02-25T01:59:03.063Z,-3.90
2023-02-25T02:01:33.947Z,-3.90
2023-02-25T02:04:04.427Z,-3.90
2023-02-25T02:06:43.185Z,-3.90
2023-02-25T02:09:15.198Z,-3.80
2023-02-25T02:11:42.714Z,-3.70
2023-02-25T02:14:14.069Z,-3.80
2023-02-25T02:16:44.278Z,-3.90
2023-02-25T02:19:33.035Z,-3.90
2023-02-25T02:22:14.746Z,-4.00
2023-02-25T02:25:23.509Z,-4.00
2023-02-25T02:28:16.885Z,-4.10
2023-02-25T02:31:21.757Z,-4.00
2023-02-25T02:34:16.910Z,-4.00
2023-02-25T02:37:05.608Z,-3.90
2023-02-25T02:39:36.846Z,-3.90
2023-02-25T02:42:25.064Z,-4.00
2023-02-25T02:45:19.417Z,-4.10
2023-02-25T02:47:54.640Z,-4.10
2023-02-25T02:50:36.287Z,-4.20
2023-02-25T02:53:10.871Z,-4.20
2023-02-25T02:55:43.410Z,-4.20
2023-02-25T02:58:13.022Z,-4.20
2023-02-25T03:00:44.888Z,-4.20
2023-02-25T03:03:17.536Z,-4.20
2023-02-25T03:05:49.810Z,-4.30
2023-02-25T03:08:28.256Z,-4.30
2023-02-25T03:10:55.628Z,-4.30
2023-02-25T03:13:22.727Z,-4.30
2023-02-25T03:15:52.192Z,-4.30
2023-02-25T03:18:39.263Z,-4.40
2023-02-25T03:21:13.613Z,-4.30
2023-02-25T03:23:44.076Z,-4.20
2023-02-25T03:26:28.515Z,-4.20
2023-02-25T03:29:00.685Z,-4.20
2023-02-25T03:31:27.996Z,-4.10
2023-02-25T03:34:11.838Z,-4.00
2023-02-25T03:36:54.016Z,-4.10
2023-02-25T03:39:36.040Z,-4.10
2023-02-25T03:42:05.892Z,-4.20
2023-02-25T03:44:37.432Z,-4.30
2023-02-25T03:47:07.145Z,-4.30
2023-02-25T03:49:43.611Z,-4.30
2023-02-25T03:52:15.106Z,-4.40
2023-02-25T03:54:43.518Z,-4.40
2023-02-25T03:57:10.521Z,-4.50
2023-02-25T03:59:37.553Z,-4.50
2023-02-25T04:02:04.796Z,-4.50
2023-02-25T04:04:31.908Z,-4.50
2023-02-25T04:06:58.825Z,-4.60
2023-02-25T04:09:26.198Z,-4.70
2023-02-25T04:11:57.031Z,-4.60
2023-02-25T04:14:24.913Z,-4.60
2023-02-25T04:16:51.839Z,-4.60
2023-02-25T04:19:18.800Z,-4.60
2023-02-25T04:21:45.895Z,-4.60
2023-02-25T04:24:13.298Z,-4.50
2023-02-25T04:26:40.069Z,-4.60
2023-02-25T04:29:07.052Z,-4.70
2023-02-25T04:31:34.106Z,-4.70
2023-02-25T04:34:01.045Z,-4.70
2023-02-25T04:36:34.286Z,-4.70
2023-02-25T04:39:04.739Z,-4.60
2023-02-25T04:41:33.512Z,-4.60
2023-02-25T04:44:01.008Z,-4.60
2023-02-25T04:46:27.856Z,-4.50
2023-02-25T04:48:54.732Z,-4.50
2023-02-25T04:51:21.740Z,-4.40
2023-02-25T04:53:48.883Z,-4.40
2023-02-25T04:56:16.382Z,-4.50
2023-02-25T04:58:44.321Z,-4.60
2023-02-25T05:01:12.194Z,-4.60
2023-02-25T05:03:39.226Z,-4.60
2023-02-25T05:06:06.852Z,-4.70
2023-02-25T05:08:35.204Z,-4.80
2023-02-25T05:11:03.061Z,-4.80
2023-02-25T05:13:30.200Z,-4.90
2023-02-25T05:16:08.806Z,-5.00
2023-02-25T05:18:37.582Z,-5.00
2023-02-25T05:21:05.188Z,-5.10
2023-02-25T05:23:32.049Z,-5.10
2023-02-25T05:26:00.352Z,-5.20
2023-02-25T05:28:27.221Z,-5.20
2023-02-25T05:30:55.308Z,-5.30
2023-02-25T05:33:23.429Z,-5.40
2023-02-25T05:35:51.333Z,-5.40
2023-02-25T05:38:18.067Z,-5.30
2023-02-25T05:40:44.896Z,-5.30
2023-02-25T05:43:11.717Z,-5.20
2023-02-25T05:45:38.503Z,-5.20
2023-02-25T05:48:05.633Z,-5.20
2023-02-25T05:50:34.702Z,-5.20
2023-02-25T05:53:01.599Z,-5.20
2023-02-25T05:55:28.561Z,-5.10
2023-02-25T05:57:55.410Z,-5.10
2023-02-25T06:00:22.751Z,-5.10
2023-02-25T06:02:49.668Z,-5.00
2023-02-25T06:05:17.507Z,-5.00
2023-02-25T06:07:44.329Z,-5.00
2023-02-25T06:10:11.851Z,-4.90
2023-02-25T06:12:38.757Z,-4.90
2023-02-25T06:15:06.050Z,-4.80
2023-02-25T06:17:33.107Z,-4.80
2023-02-25T06:20:01.244Z,-4.80
2023-02-25T06:22:28.131Z,-4.80
2023-02-25T06:24:54.945Z,-4.80
2023-02-25T06:27:22.294Z,-4.80
2023-02-25T06:29:49.493Z,-4.70
2023-02-25T06:32:17.234Z,-4.70
2023-02-25T06:34:44.077Z,-4.70
2023-02-25T06:37:10.882Z,-4.70
2023-02-25T06:39:37.713Z,-4.70
2023-02-25T06:42:04.783Z,-4.60
2023-02-25T06:44:31.665Z,-4.60
2023-02-25T06:46:58.480Z,-4.60
2023-02-25T06:49:25.263Z,-4.70
2023-02-25T06:51:52.105Z,-4.70
2023-02-25T06:54:19.470Z,-4.70
2023-02-25T06:56:46.346Z,-4.70
2023-02-25T06:59:13.409Z,-4.50
2023-02-25T07:01:40.611Z,-4.40
2023-02-25T07:04:07.551Z,-4.40
2023-02-25T07:06:34.526Z,-4.30
2023-02-25T07:09:01.540Z,-4.30
2023-02-25T07:11:31.677Z,-4.20
2023-02-25T07:13:58.863Z,-4.20
2023-02-25T07:16:26.713Z,-4.10
2023-02-25T07:18:53.693Z,-4.10
2023-02-25T07:21:20.588Z,-4.00
2023-02-25T07:23:47.547Z,-4.00
2023-02-25T07:26:15.835Z,-4.00
2023-02-25T07:28:43.333Z,-3.90
2023-02-25T07:31:17.243Z,-3.80
2023-02-25T07:33:44.709Z,-3.70
2023-02-25T07:36:12.304Z,-3.60
2023-02-25T07:38:39.852Z,-3.70
2023-02-25T07:41:16.231Z,-3.80
2023-02-25T07:43:44.275Z,-3.90
2023-02-25T07:46:13.410Z,-3.80
2023-02-25T07:48:40.570Z,-3.60
2023-02-25T07:51:12.142Z,-3.50
2023-02-25T07:53:39.437Z,-3.40
2023-02-25T07:56:07.735Z,-3.30
2023-02-25T07:58:35.564Z,-3.20
2023-02-25T08:01:07.188Z,-3.10
2023-02-25T08:03:34.111Z,-3.00
2023-02-25T08:06:02.794Z,-2.90
2023-02-25T08:08:29.774Z,-2.80
2023-02-25T08:10:56.694Z,-2.60
2023-02-25T08:13:23.660Z,-2.60
2023-02-25T08:15:50.670Z,-2.50
2023-02-25T08:18:17.754Z,-2.40
2023-02-25T08:20:48.229Z,-2.30
2023-02-25T08:23:15.437Z,-2.30
2023-02-25T08:25:42.351Z,-2.30
2023-02-25T08:28:09.166Z,-2.20
2023-02-25T08:30:36.255Z,-2.20
2023-02-25T08:33:03.254Z,-2.20
2023-02-25T08:35:30.262Z,-2.10
2023-02-25T08:37:57.046Z,-2.10
2023-02-25T08:40:23.888Z,-2.00
2023-02-25T08:42:50.845Z,-2.00
2023-02-25T08:45:17.678Z,-2.00
2023-02-25T08:47:44.513Z,-2.10
2023-02-25T08:50:11.886Z,-2.10
2023-02-25T08:52:41.184Z,-2.00
2023-02-25T08:55:09.630Z,-2.00
2023-02-25T08:57:36.495Z,-2.00
2023-02-25T09:00:06.714Z,-1.90
2023-02-25T09:02:33.573Z,-1.70
2023-02-25T09:05:00.470Z,-1.60
2023-02-25T09:07:27.613Z,-1.50
2023-02-25T09:09:54.478Z,-1.30
2023-02-25T09:12:23.612Z,-1.20
2023-02-25T09:14:51.594Z,-1.00
2023-02-25T09:17:18.650Z,-0.90
2023-02-25T09:19:45.445Z,-0.70
2023-02-25T09:22:12.277Z,-0.60
2023-02-25T09:24:39.200Z,-0.40
2023-02-25T09:27:08.173Z,-0.30
2023-02-25T09:29:38.992Z,0.00
2023-02-25T09:32:07.059Z,0.10
2023-02-25T09:34:34.167Z,0.20
2023-02-25T09:37:05.497Z,0.30
2023-02-25T09:39:32.518Z,0.40
2023-02-25T09:42:09.588Z,0.50
2023-02-25T09:44:53.283Z,0.50
2023-02-25T09:47:27.044Z,0.70
2023-02-25T09:50:06.485Z,0.80
2023-02-25T09:52:39.265Z,0.90
2023-02-25T09:55:08.435Z,1.10
2023-02-25T09:57:43.700Z,1.20
2023-02-25T10:00:23.175Z,1.40
2023-02-25T10:03:05.951Z,1.50
2023-02-25T10:06:00.909Z,1.70
2023-02-25T10:08:41.026Z,1.80
2023-02-25T10:11:13.510Z,1.90
2023-02-25T10:14:09.023Z,1.80
2023-02-25T10:17:05.756Z,1.60
2023-02-25T10:19:41.900Z,1.50
2023-02-25T10:22:49.532Z,1.60
2023-02-25T10:25:18.640Z,1.80
2023-02-25T10:28:10.930Z,2.00
2023-02-25T10:30:52.641Z,2.10
2023-02-25T10:33:24.569Z,2.10
2023-02-25T10:36:07.884Z,2.20
2023-02-25T10:38:38.280Z,2.40
2023-02-25T10:41:05.622Z,2.40
2023-02-25T10:43:34.671Z,2.50
2023-02-25T10:46:13.151Z,2.50
2023-02-25T10:48:44.180Z,2.60
2023-02-25T10:51:16.497Z,2.60
2023-02-25T10:53:59.383Z,2.60
2023-02-25T10:56:30.944Z,2.70
2023-02-25T10:59:20.617Z,2.70
2023-02-25T11:01:48.707Z,2.50
2023-02-25T11:04:20.395Z,2.50
2023-02-25T11:06:48.788Z,2.60
2023-02-25T11:09:22.011Z,2.70
2023-02-25T11:12:12.089Z,2.60
2023-02-25T11:14:39.975Z,2.60
2023-02-25T11:17:12.280Z,2.60
2023-02-25T11:19:42.495Z,2.60
2023-02-25T11:22:28.493Z,2.70
2023-02-25T11:25:04.730Z,2.80
2023-02-25T11:27:43.158Z,2.90
2023-02-25T11:30:12.786Z,2.90
2023-02-25T11:32:58.716Z,2.90
2023-02-25T11:35:38.335Z,3.00
2023-02-25T11:38:25.785Z,3.00
2023-02-25T11:40:53.050Z,2.90
2023-02-25T11:46:01.736Z,3.00
2023-02-25T11:48:53.100Z,3.10
2023-02-25T11:51:30.302Z,3.10
2023-02-25T11:54:26.049Z,3.10
2023-02-25T11:57:15.461Z,3.10
2023-02-25T12:00:11.568Z,3.10
2023-02-25T12:02:41.417Z,3.10
2023-02-25T12:05:14.164Z,3.20
2023-02-25T12:08:12.379Z,3.40
2023-02-25T12:10:49.526Z,3.50
2023-02-25T12:13:38.060Z,3.60
2023-02-25T12:16:44.474Z,3.70
2023-02-25T12:19:37.345Z,3.60
2023-02-25T12:22:29.449Z,3.50
2023-02-25T12:25:21.172Z,3.60
2023-02-25T12:27:57.976Z,3.80
2023-02-25T12:30:52.852Z,3.80
2023-02-25T12:33:51.084Z,3.70
2023-02-25T12:36:46.763Z,3.70
2023-02-25T12:39:38.329Z,3.60
2023-02-25T12:42:14.686Z,3.70
2023-02-25T12:45:03.367Z,3.70
2023-02-25T12:48:01.212Z,3.70
2023-02-25T12:51:05.833Z,3.80
2023-02-25T12:53:58.044Z,3.80
2023-02-25T12:56:43.957Z,3.90
2023-02-25T12:59:33.281Z,3.90
2023-02-25T13:02:09.121Z,3.80
2023-02-25T13:04:48.450Z,4.00
2023-02-25T13:07:38.641Z,4.20
2023-02-25T13:10:33.153Z,4.10
2023-02-25T13:13:33.738Z,4.10
2023-02-25T13:16:26.274Z,4.20
2023-02-25T13:19:26.411Z,4.20
2023-02-25T13:21:59.263Z,4.30
2023-02-25T13:24:44.839Z,4.50
2023-02-25T13:27:15.086Z,4.50
2023-02-25T13:29:57.763Z,4.60
2023-02-25T13:33:11.349Z,4.70
2023-02-25T13:36:05.765Z,4.60
2023-02-25T13:38:44.169Z,4.60
2023-02-25T13:41:31.738Z,4.60
2023-02-25T13:44:16.811Z,4.40
2023-02-25T13:47:04.707Z,4.50
2023-02-25T13:49:45.215Z,4.60
2023-02-25T13:52:36.544Z,4.70
2023-02-25T13:55:27.244Z,4.70
2023-02-25T13:58:14.304Z,4.60
2023-02-25T14:01:14.654Z,4.50
2023-02-25T14:03:52.291Z,4.50
2023-02-25T14:06:39.661Z,4.60
2023-02-25T14:09:30.834Z,4.70
2023-02-25T14:12:39.196Z,4.60
2023-02-25T14:15:28.968Z,4.60
2023-02-25T14:18:25.776Z,4.60
2023-02-25T14:21:14.483Z,4.50
2023-02-25T14:23:47.734Z,4.40
2023-02-25T14:26:22.822Z,4.30
2023-02-25T14:29:01.771Z,4.40
2023-02-25T14:31:51.803Z,4.40
2023-02-25T14:34:44.346Z,4.30
2023-02-25T14:37:37.058Z,4.30
2023-02-25T14:40:24.321Z,4.20
2023-02-25T14:43:05.168Z,4.20
2023-02-25T14:45:44.584Z,4.20
2023-02-25T14:48:30.467Z,4.10
2023-02-25T14:51:09.778Z,4.10
2023-02-25T14:53:53.513Z,4.10
2023-02-25T14:56:29.734Z,4.00
2023-02-25T14:59:34.568Z,4.00
2023-02-25T15:02:28.779Z,4.00
2023-02-25T15:05:11.269Z,4.00
2023-02-25T15:08:07.143Z,4.00
2023-02-25T15:10:34.278Z,4.00
2023-02-25T15:13:17.210Z,3.90
2023-02-25T15:16:03.051Z,3.90
2023-02-25T15:19:00.791Z,3.80
2023-02-25T15:21:33.900Z,3.70
2023-02-25T15:24:01.355Z,3.80
2023-02-25T15:26:46.869Z,3.70
2023-02-25T15:29:40.467Z,3.70
2023-02-25T15:32:30.911Z,3.60
2023-02-25T15:35:13.365Z,3.60
2023-02-25T15:37:55.312Z,3.60
2023-02-25T15:40:24.336Z,3.60
2023-02-25T15:42:55.862Z,3.60
2023-02-25T15:45:28.958Z,3.60
2023-02-25T15:48:08.399Z,3.60
2023-02-25T15:50:47.404Z,3.60
2023-02-25T15:53:26.466Z,3.50
2023-02-25T15:56:03.749Z,3.40
2023-02-25T15:58:30.884Z,3.40
2023-02-25T16:01:07.519Z,3.30
2023-02-25T16:03:34.898Z,3.20
2023-02-25T16:06:14.877Z,3.20
2023-02-25T16:09:05.512Z,3.10
2023-02-25T16:11:43.228Z,3.00
2023-02-25T16:14:23.767Z,2.90
2023-02-25T16:16:59.966Z,2.80
2023-02-25T16:19:30.916Z,2.70
2023-02-25T16:22:01.741Z,2.70
2023-02-25T16:24:29.598Z,2.60
2023-02-25T16:26:59.721Z,2.60
2023-02-25T16:29:59.343Z,2.50
2023-02-25T16:32:49.411Z,2.50
2023-02-25T16:35:25.264Z,2.40
2023-02-25T16:38:22.318Z,2.30
2023-02-25T16:40:49.990Z,2.30
2023-02-25T16:43:27.114Z,2.20
2023-02-25T16:46:02.213Z,2.20
2023-02-25T16:48:38.425Z,2.20
2023-02-25T16:51:34.709Z,2.20
2023-02-25T16:54:10.732Z,2.10
2023-02-25T16:56:38.192Z,2.10
2023-02-25T16:59:14.178Z,2.10
2023-02-25T17:01:48.763Z,2.10
2023-02-25T17:04:26.656Z,2.00
2023-02-25T17:07:13.540Z,1.90
2023-02-25T17:09:52.085Z,1.90
2023-02-25T17:12:41.334Z,1.90
2023-02-25T17:15:15.341Z,1.80
2023-02-25T17:17:44.529Z,1.80
2023-02-25T17:20:24.618Z,1.70
2023-02-25T17:22:52.363Z,1.60
2023-02-25T17:25:21.108Z,1.50
2023-02-25T17:27:50.112Z,1.30
2023-02-25T17:30:46.366Z,1.30
2023-02-25T17:33:24.594Z,1.10
2023-02-25T17:35:57.544Z,1.00
2023-02-25T17:38:25.999Z,1.00
2023-02-25T17:40:55.373Z,0.90
2023-02-25T17:43:24.167Z,0.90
2023-02-25T17:46:01.368Z,0.80
2023-02-25T17:48:32.609Z,0.80
2023-02-25T17:51:00.306Z,0.70
2023-02-25T17:53:42.789Z,0.80
2023-02-25T17:56:16.089Z,0.70
2023-02-25T17:58:45.261Z,0.70
2023-02-25T18:01:29.408Z,0.60
2023-02-25T18:03:57.189Z,0.60
2023-02-25T18:06:41.100Z,0.60
2023-02-25T18:09:36.786Z,0.60
2023-02-25T18:12:07.356Z,0.50
2023-02-25T18:14:39.977Z,0.50
2023-02-25T18:17:25.921Z,0.50
2023-02-25T18:19:56.722Z,0.50
2023-02-25T18:22:30.255Z,0.40
2023-02-25T18:25:00.387Z,0.40
2023-02-25T18:27:32.887Z,0.40
2023-02-25T18:30:19.990Z,0.40
2023-02-25T18:32:47.363Z,0.40
2023-02-25T18:35:15.168Z,0.40
2023-02-25T18:37:43.464Z,0.40
2023-02-25T18:40:17.230Z,0.30
2023-02-25T18:42:44.244Z,0.30
2023-02-25T18:45:16.616Z,0.20
2023-02-25T18:47:43.606Z,0.20
2023-02-25T18:50:11.457Z,0.20
2023-02-25T18:52:38.981Z,0.20
2023-02-25T18:55:07.377Z,0.10
2023-02-25T18:57:34.430Z,0.10
2023-02-25T19:00:01.290Z,0.00
2023-02-25T19:02:34.509Z,0.00
2023-02-25T19:05:02.958Z,0.00
2023-02-25T19:07:33.340Z,0.00
2023-02-25T19:10:00.625Z,0.00
2023-02-25T19:12:30.291Z,0.00
2023-02-25T19:15:00.379Z,0.10
2023-02-25T19:17:31.161Z,0.20
2023-02-25T19:19:58.231Z,0.20
2023-02-25T19:22:26.008Z,0.30
2023-02-25T19:24:53.043Z,0.30
2023-02-25T19:27:23.317Z,0.20
2023-02-25T19:29:52.510Z,0.10
2023-02-25T19:32:21.117Z,0.10
2023-02-25T19:34:48.614Z,0.10
2023-02-25T19:37:17.596Z,0.10
2023-02-25T19:39:44.581Z,0.00
2023-02-25T19:42:12.245Z,0.00
2023-02-25T19:44:39.745Z,0.00
2023-02-25T19:47:08.021Z,0.00
2023-02-25T19:49:34.985Z,0.00
2023-02-25T19:52:01.946Z,0.00
2023-02-25T19:54:28.865Z,-0.10
2023-02-25T19:56:55.942Z,-0.10
2023-02-25T19:59:22.900Z,-0.20
2023-02-25T20:01:50.238Z,-0.20
2023-02-25T20:04:17.270Z,-0.30
2023-02-25T20:06:44.387Z,-0.40
2023-02-25T20:09:11.613Z,-0.40
2023-02-25T20:11:38.834Z,-0.50
2023-02-25T20:14:07.047Z,-0.50
2023-02-25T20:16:34.948Z,-0.60
2023-02-25T20:19:02.284Z,-0.60
2023-02-25T20:21:29.648Z,-0.70
2023-02-25T20:23:59.245Z,-0.70
2023-02-25T20:26:28.742Z,-0.80
2023-02-25T20:28:56.859Z,-0.90
2023-02-25T20:31:25.097Z,-0.90
2023-02-25T20:33:56.097Z,-0.90
2023-02-25T20:36:29.617Z,-1.00
2023-02-25T20:39:26.297Z,-1.00
2023-02-25T20:41:54.364Z,-1.00
2023-02-25T20:44:21.910Z,-1.00
2023-02-25T20:46:49.460Z,-1.00
2023-02-25T20:49:19.158Z,-1.00
2023-02-25T20:51:47.731Z,-1.00
2023-02-25T20:54:17.539Z,-1.00
2023-02-25T20:56:45.534Z,-1.10
2023-02-25T20:59:13.182Z,-1.10
2023-02-25T21:01:41.037Z,-1.20
2023-02-25T21:04:08.344Z,-1.20
2023-02-25T21:06:39.421Z,-1.30
2023-02-25T21:09:07.349Z,-1.30
2023-02-25T21:11:34.428Z,-1.30
2023-02-25T21:14:01.405Z,-1.40
2023-02-25T21:16:28.680Z,-1.40
2023-02-25T21:18:58.345Z,-1.40
2023-02-25T21:21:26.868Z,-1.40
2023-02-25T21:23:54.246Z,-1.40
2023-02-25T21:26:21.770Z,-1.40
2023-02-25T21:28:48.961Z,-1.40
2023-02-25T21:31:17.217Z,-1.40
2023-02-25T21:33:44.481Z,-1.40
2023-02-25T21:36:11.561Z,-1.40
2023-02-25T21:38:38.966Z,-1.40
2023-02-25T21:41:14.990Z,-1.40
2023-02-25T21:43:43.024Z,-1.40
2023-02-25T21:46:12.628Z,-1.40
2023-02-25T21:48:41.153Z,-1.40
2023-02-25T21:51:15.792Z,-1.50
2023-02-25T21:53:42.787Z,-1.50
2023-02-25T21:56:16.452Z,-1.50
2023-02-25T21:58:44.130Z,-1.50
2023-02-25T22:01:28.022Z,-1.50
2023-02-25T22:03:55.383Z,-1.60
2023-02-25T22:06:24.111Z,-1.50
2023-02-25T22:08:52.782Z,-1.60
2023-02-25T22:11:32.624Z,-1.60
2023-02-25T22:14:01.455Z,-1.60
2023-02-25T22:16:29.311Z,-1.60
2023-02-25T22:18:57.058Z,-1.60
2023-02-25T22:21:26.272Z,-1.60
2023-02-25T22:23:55.812Z,-1.60
2023-02-25T22:26:26.142Z,-1.60
2023-02-25T22:28:58.774Z,-1.60
2023-02-25T22:31:26.638Z,-1.60
2023-02-25T22:33:54.013Z,-1.60
2023-02-25T22:36:21.106Z,-1.60
2023-02-25T22:38:49.450Z,-1.60
2023-02-25T22:41:20.439Z,-1.70
2023-02-25T22:43:48.628Z,-1.60
2023-02-25T22:46:27.986Z,-1.70
2023-02-25T22:48:55.521Z,-1.70
2023-02-25T22:51:24.624Z,-1.70
2023-02-25T22:53:52.531Z,-1.70
2023-02-25T22:56:20.222Z,-1.70
2023-02-25T22:58:47.443Z,-1.70
2023-02-25T23:01:16.434Z,-1.70
2023-02-25T23:03:46.451Z,-1.80
2023-02-25T23:06:15.838Z,-1.90
2023-02-25T23:08:43.569Z,-1.90
2023-02-25T23:11:20.973Z,-2.00
2023-02-25T23:13:50.511Z,-1.90
2023-02-25T23:16:28.078Z,-2.00
2023-02-25T23:18:57.763Z,-2.00
2023-02-25T23:21:25.373Z,-2.00
2023-02-25T23:23:55.924Z,-2.10
2023-02-25T23:26:26.220Z,-2.10
2023-02-25T23:28:57.948Z,-2.10
2023-02-25T23:31:45.632Z,-2.10
2023-02-25T23:34:13.988Z,-2.20
2023-02-25T23:36:43.388Z,-2.20
2023-02-25T23:39:11.291Z,-2.20
2023-02-25T23:41:38.445Z,-2.30
2023-02-25T23:44:08.495Z,-2.30
2023-02-25T23:46:36.514Z,-2.40
2023-02-25T23:49:05.119Z,-2.40
2023-02-25T23:51:32.576Z,-2.50
2023-02-25T23:54:02.260Z,-2.50
2023-02-25T23:56:31.093Z,-2.60
2023-02-25T23:58:58.653Z,-2.70
